Whidbey Island Naval Air Station, Ault Field, Airport Oak Harbor US
ICAO: KNUW
IATA: NUW
Category: Medium
Scheduled Services: No

Elevation: 47 ft
TransAlt. 18000 ft.

Airport Communications:
APP/DEP:118.2
ATIS:134.15
CLNC DEL:124.15
GND:121.75
BASE OPS:35.01
PMSV METRO:34.34
TWR:127.9

KNUW Zoom In..

Runways:

(A) RW 07 length 8000 ft width 200 ft
---- / hdg 69

(B) RW 14 length 8001 ft width 200 ft
ILS 110.10 / hdg 137

(C) RW 25 length 8000 ft width 200 ft
---- / hdg 249

(D) RW 32 length 8001 ft width 200 ft
---- / hdg 317

Location; KNUW
Day. 26 / Time. 03.56 Zulu
* Altimeter: 30.06
* Temperature: 12° c. 53.6°f.
* Wind from: 240° Speed 09 kn.
Dewpoint: 07° c.
Visibility: 10 Statute Miles.
Clouds: Few 3000 ft.
Clouds: Few 6000 ft.
Clouds: Scattered 1000 ft.
Clouds: Scattered 25000 ft.

KNUW 260356Z 24009KT 10SM FEW030 FEW060 SCT100 SCT250 12/07 A3006 RMK AO2 SLP180 T01220072 $


Wind From 240°
Speed 09 kn.

 
 
jpsmedia.com for Web Design SOUNDCLOUD worldairports.se 2018   terms of use